sensor_id;sensor_type;location;lat;lon;timestamp;temperature;humidity
31687;DHT22;18285;51.330;4.946;2023-03-14T00:22:19;23.90;37.10
31687;DHT22;18285;51.330;4.946;2023-03-14T00:46:31;24.00;36.40
31687;DHT22;18285;51.330;4.946;2023-03-14T01:10:42;23.90;36.20
31687;DHT22;18285;51.330;4.946;2023-03-14T01:34:54;24.00;36.40
31687;DHT22;18285;51.330;4.946;2023-03-14T01:59:06;24.10;35.60
31687;DHT22;18285;51.330;4.946;2023-03-14T02:23:30;23.90;36.00
31687;DHT22;18285;51.330;4.946;2023-03-14T02:47:45;23.80;35.90
31687;DHT22;18285;51.330;4.946;2023-03-14T03:11:57;23.90;35.70
31687;DHT22;18285;51.330;4.946;2023-03-14T03:36:08;23.90;35.60
31687;DHT22;18285;51.330;4.946;2023-03-14T04:00:19;23.80;35.50
31687;DHT22;18285;51.330;4.946;2023-03-14T04:24:30;23.80;36.00
31687;DHT22;18285;51.330;4.946;2023-03-14T04:48:41;23.80;36.60
31687;DHT22;18285;51.330;4.946;2023-03-14T05:12:51;23.90;36.70
31687;DHT22;18285;51.330;4.946;2023-03-14T05:37:02;23.90;36.80
31687;DHT22;18285;51.330;4.946;2023-03-14T06:01:13;23.90;37.30
31687;DHT22;18285;51.330;4.946;2023-03-14T06:25:25;23.90;37.80
31687;DHT22;18285;51.330;4.946;2023-03-14T06:49:36;23.80;38.00
31687;DHT22;18285;51.330;4.946;2023-03-14T07:13:46;24.00;38.50
31687;DHT22;18285;51.330;4.946;2023-03-14T07:37:57;24.10;38.20
31687;DHT22;18285;51.330;4.946;2023-03-14T08:02:11;24.00;37.50
31687;DHT22;18285;51.330;4.946;2023-03-14T08:26:22;24.00;36.60
31687;DHT22;18285;51.330;4.946;2023-03-14T08:50:33;23.90;36.00
31687;DHT22;18285;51.330;4.946;2023-03-14T09:14:43;23.90;36.10
31687;DHT22;18285;51.330;4.946;2023-03-14T09:38:54;23.80;36.50
31687;DHT22;18285;51.330;4.946;2023-03-14T10:27:32;23.90;36.70
31687;DHT22;18285;51.330;4.946;2023-03-14T10:51:43;24.00;36.50
31687;DHT22;18285;51.330;4.946;2023-03-14T11:16:22;24.00;36.50
31687;DHT22;18285;51.330;4.946;2023-03-14T11:40:37;24.00;36.30
31687;DHT22;18285;51.330;4.946;2023-03-14T12:05:14;24.00;36.10
31687;DHT22;18285;51.330;4.946;2023-03-14T12:29:25;24.00;36.40
31687;DHT22;18285;51.330;4.946;2023-03-14T13:17:48;24.00;36.40
31687;DHT22;18285;51.330;4.946;2023-03-14T13:42:00;23.90;36.00
31687;DHT22;18285;51.330;4.946;2023-03-14T14:06:36;23.90;35.20
31687;DHT22;18285;51.330;4.946;2023-03-14T14:55:21;23.90;33.40
31687;DHT22;18285;51.330;4.946;2023-03-14T15:19:31;23.90;30.20
31687;DHT22;18285;51.330;4.946;2023-03-14T15:43:43;23.80;30.90
31687;DHT22;18285;51.330;4.946;2023-03-14T16:07:54;23.80;30.30
31687;DHT22;18285;51.330;4.946;2023-03-14T16:32:05;23.70;30.60
31687;DHT22;18285;51.330;4.946;2023-03-14T16:56:16;23.70;29.40
31687;DHT22;18285;51.330;4.946;2023-03-14T17:20:27;23.70;30.00
31687;DHT22;18285;51.330;4.946;2023-03-14T17:44:38;23.40;25.00
31687;DHT22;18285;51.330;4.946;2023-03-14T18:08:49;22.10;23.70
31687;DHT22;18285;51.330;4.946;2023-03-14T18:33:00;22.70;28.90
31687;DHT22;18285;51.330;4.946;2023-03-14T18:57:11;23.00;29.30
31687;DHT22;18285;51.330;4.946;2023-03-14T19:21:30;23.20;29.10
31687;DHT22;18285;51.330;4.946;2023-03-14T19:45:42;23.30;28.80
31687;DHT22;18285;51.330;4.946;2023-03-14T20:09:53;23.30;29.70
31687;DHT22;18285;51.330;4.946;2023-03-14T20:34:03;23.20;31.90
31687;DHT22;18285;51.330;4.946;2023-03-14T20:58:15;23.20;31.80
31687;DHT22;18285;51.330;4.946;2023-03-14T21:22:26;23.40;31.80
31687;DHT22;18285;51.330;4.946;2023-03-14T21:46:38;24.30;29.60
31687;DHT22;18285;51.330;4.946;2023-03-14T22:10:51;24.40;29.70
31687;DHT22;18285;51.330;4.946;2023-03-14T22:35:02;25.00;29.40
31687;DHT22;18285;51.330;4.946;2023-03-14T22:59:13;25.40;28.90
31687;DHT22;18285;51.330;4.946;2023-03-14T23:23:24;25.80;28.50
31687;DHT22;18285;51.330;4.946;2023-03-14T23:47:35;26.00;28.10
